createdAt,value
2024-01-26T00:01:54.426Z,67.85
2024-01-26T00:04:21.305Z,63.40
2024-01-26T00:06:48.978Z,62.67
2024-01-26T00:09:16.877Z,67.95
2024-01-26T00:11:44.071Z,65.72
2024-01-26T00:14:11.293Z,65.75
2024-01-26T00:16:38.865Z,68.20
2024-01-26T00:19:08.582Z,61.70
2024-01-26T00:21:35.629Z,60.88
2024-01-26T00:24:02.400Z,59.25
2024-01-26T00:26:28.852Z,58.85
2024-01-26T00:28:55.353Z,61.80
2024-01-26T00:31:21.935Z,53.90
2024-01-26T00:33:48.666Z,54.03
2024-01-26T00:36:15.497Z,53.47
2024-01-26T00:38:42.553Z,51.70
2024-01-26T00:41:09.085Z,49.38
2024-01-26T00:43:35.688Z,50.83
2024-01-26T00:46:02.347Z,50.83
2024-01-26T00:48:29.166Z,50.13
2024-01-26T00:50:56.089Z,53.28
2024-01-26T00:53:23.642Z,53.35
2024-01-26T00:55:50.796Z,56.90
2024-01-26T00:58:17.336Z,50.28
2024-01-26T01:00:44.370Z,52.50
2024-01-26T01:03:11.052Z,53.03
2024-01-26T01:05:37.677Z,53.33
2024-01-26T01:08:05.836Z,48.30
2024-01-26T01:10:32.438Z,56.17
2024-01-26T01:12:58.980Z,54.97
2024-01-26T01:15:25.481Z,52.70
2024-01-26T01:17:52.033Z,52.22
2024-01-26T01:20:18.555Z,53.10
2024-01-26T01:22:45.388Z,51.83
2024-01-26T01:25:13.407Z,48.85
2024-01-26T01:27:40.588Z,49.10
2024-01-26T01:30:09.067Z,46.60
2024-01-26T01:32:35.987Z,45.75
2024-01-26T01:35:03.177Z,45.22
2024-01-26T01:37:29.799Z,44.33
2024-01-26T01:39:56.263Z,49.17
2024-01-26T01:42:22.721Z,46.85
2024-01-26T01:44:49.401Z,48.90
2024-01-26T01:47:16.509Z,44.58
2024-01-26T01:49:45.169Z,45.28
2024-01-26T01:52:15.756Z,44.38
2024-01-26T01:54:42.268Z,47.70
2024-01-26T01:57:12.589Z,46.70
2024-01-26T01:59:39.226Z,49.63
2024-01-26T02:02:06.028Z,45.20
2024-01-26T02:04:33.018Z,49.97
2024-01-26T02:07:01.759Z,57.75
2024-01-26T02:09:28.906Z,54.05
2024-01-26T02:11:56.680Z,53.05
2024-01-26T02:14:24.035Z,55.58
2024-01-26T02:17:02.552Z,59.92
2024-01-26T02:19:30.807Z,51.40
2024-01-26T02:21:57.338Z,53.47
2024-01-26T02:24:23.853Z,51.97
2024-01-26T02:26:50.450Z,55.63
2024-01-26T02:29:16.982Z,50.45
2024-01-26T02:31:43.479Z,49.13
2024-01-26T02:34:13.867Z,51.85
2024-01-26T02:36:40.612Z,50.78
2024-01-26T02:39:07.388Z,52.90
2024-01-26T02:41:35.788Z,54.65
2024-01-26T02:44:04.036Z,59.95
2024-01-26T02:46:30.614Z,62.00
2024-01-26T02:48:57.462Z,60.30
2024-01-26T02:51:24.112Z,70.90
2024-01-26T02:53:50.689Z,71.25
2024-01-26T02:56:17.264Z,59.15
2024-01-26T02:58:43.844Z,62.22
2024-01-26T03:01:10.401Z,57.97
2024-01-26T03:03:36.992Z,60.22
2024-01-26T03:06:03.785Z,58.40
2024-01-26T03:08:30.369Z,56.38
2024-01-26T03:10:56.846Z,59.10
2024-01-26T03:13:23.316Z,55.35
2024-01-26T03:15:51.300Z,53.53
2024-01-26T03:18:18.814Z,49.75
2024-01-26T03:20:45.846Z,52.58
2024-01-26T03:23:12.823Z,52.05
2024-01-26T03:25:39.889Z,53.53
2024-01-26T03:28:07.511Z,50.42
2024-01-26T03:30:35.208Z,54.03
2024-01-26T03:33:02.145Z,58.00
2024-01-26T03:35:28.832Z,55.85
2024-01-26T03:37:55.498Z,54.90
2024-01-26T03:40:23.482Z,54.13
2024-01-26T03:42:50.002Z,57.78
2024-01-26T03:45:16.640Z,55.53
2024-01-26T03:47:43.303Z,54.83
2024-01-26T03:50:10.293Z,52.75
2024-01-26T03:52:36.881Z,53.25
2024-01-26T03:55:03.649Z,54.17
2024-01-26T03:57:30.173Z,50.63
2024-01-26T03:59:56.664Z,52.40
2024-01-26T04:02:23.162Z,51.30
2024-01-26T04:04:49.644Z,52.70
2024-01-26T04:07:16.215Z,52.72
2024-01-26T04:09:42.693Z,53.45
2024-01-26T04:12:09.404Z,52.92
2024-01-26T04:14:36.009Z,54.72
2024-01-26T04:17:02.509Z,54.25
2024-01-26T04:19:29.176Z,54.63
2024-01-26T04:21:55.697Z,53.92
2024-01-26T04:24:22.172Z,50.33
2024-01-26T04:26:48.648Z,52.72
2024-01-26T04:29:15.146Z,79.80
2024-01-26T04:31:45.233Z,79.45
2024-01-26T04:34:12.500Z,67.45
2024-01-26T04:36:39.081Z,84.40
2024-01-26T04:39:05.694Z,66.72
2024-01-26T04:41:32.262Z,67.72
2024-01-26T04:43:58.747Z,71.13
2024-01-26T04:46:25.233Z,101.78
2024-01-26T04:48:51.891Z,98.32
2024-01-26T04:51:18.826Z,91.30
2024-01-26T04:53:45.396Z,100.88
2024-01-26T04:56:14.430Z,79.82
2024-01-26T04:58:41.286Z,86.47
2024-01-26T05:01:08.768Z,115.22
2024-01-26T05:03:35.309Z,111.82
2024-01-26T05:06:02.014Z,89.57
2024-01-26T05:08:28.644Z,76.10
2024-01-26T05:10:55.119Z,85.18
2024-01-26T05:13:21.700Z,85.25
2024-01-26T05:15:48.379Z,90.28
2024-01-26T05:18:15.057Z,71.28
2024-01-26T05:20:41.728Z,73.30
2024-01-26T05:23:09.087Z,80.47
2024-01-26T05:25:35.548Z,77.93
2024-01-26T05:28:02.045Z,71.65
2024-01-26T05:30:28.524Z,67.03
2024-01-26T05:32:55.149Z,80.45
2024-01-26T05:35:22.288Z,84.65
2024-01-26T05:37:48.893Z,77.22
2024-01-26T05:40:15.690Z,79.28
2024-01-26T05:42:42.196Z,81.40
2024-01-26T05:45:09.868Z,77.22
2024-01-26T05:47:36.489Z,89.30
2024-01-26T05:50:03.349Z,95.60
2024-01-26T05:52:29.935Z,75.13
2024-01-26T05:54:56.505Z,75.45
2024-01-26T05:57:23.135Z,101.25
2024-01-26T05:59:50.180Z,95.70
2024-01-26T06:02:16.794Z,83.32
2024-01-26T06:04:43.368Z,95.30
2024-01-26T06:07:10.015Z,80.80
2024-01-26T06:09:36.543Z,104.78
2024-01-26T06:12:03.569Z,99.35
2024-01-26T06:14:30.085Z,95.53
2024-01-26T06:16:56.586Z,98.32
2024-01-26T06:19:23.271Z,97.28
2024-01-26T06:21:50.410Z,92.30
2024-01-26T06:24:17.033Z,88.40
2024-01-26T06:26:43.653Z,87.05
2024-01-26T06:29:10.107Z,76.82
2024-01-26T06:31:36.599Z,80.10
2024-01-26T06:34:03.244Z,87.53
2024-01-26T06:36:29.890Z,87.30
2024-01-26T06:38:56.399Z,75.55
2024-01-26T06:41:22.960Z,77.20
2024-01-26T06:43:52.478Z,74.80
2024-01-26T06:46:25.335Z,89.45
2024-01-26T06:48:52.223Z,78.25
2024-01-26T06:51:20.217Z,79.28
2024-01-26T06:53:46.763Z,70.93
2024-01-26T06:56:13.333Z,70.68
2024-01-26T06:58:39.816Z,75.68
2024-01-26T07:01:06.944Z,69.32
2024-01-26T07:03:33.570Z,64.75
2024-01-26T07:06:00.201Z,68.45
2024-01-26T07:08:26.757Z,67.68
2024-01-26T07:10:53.320Z,60.20
2024-01-26T07:13:20.232Z,56.05
2024-01-26T07:15:46.932Z,57.95
2024-01-26T07:18:13.863Z,50.95
2024-01-26T07:20:40.455Z,54.03
2024-01-26T07:23:06.988Z,52.90
2024-01-26T07:25:33.475Z,56.83
2024-01-26T07:28:00.058Z,58.15
2024-01-26T07:30:26.600Z,53.97
2024-01-26T07:32:53.326Z,51.58
2024-01-26T07:35:19.895Z,48.90
2024-01-26T07:37:46.635Z,50.92
2024-01-26T07:40:13.770Z,50.30
2024-01-26T07:42:40.252Z,56.50
2024-01-26T07:45:06.867Z,54.75
2024-01-26T07:47:36.285Z,61.55
2024-01-26T07:50:04.250Z,58.40
2024-01-26T07:52:30.818Z,57.55
2024-01-26T07:54:57.337Z,58.88
2024-01-26T07:57:25.768Z,55.80
2024-01-26T07:59:52.355Z,59.20
2024-01-26T08:02:19.298Z,61.50
2024-01-26T08:04:46.152Z,64.88
2024-01-26T08:07:15.469Z,60.35
2024-01-26T08:09:42.074Z,65.90
2024-01-26T08:12:09.758Z,58.25
2024-01-26T08:14:37.630Z,61.85
2024-01-26T08:17:04.462Z,68.70
2024-01-26T08:19:31.537Z,65.07
2024-01-26T08:21:58.141Z,61.80
2024-01-26T08:24:24.800Z,61.13
2024-01-26T08:26:51.617Z,61.08
2024-01-26T08:29:18.180Z,60.60
2024-01-26T08:31:45.634Z,66.47
2024-01-26T08:34:12.395Z,71.28
2024-01-26T08:36:39.289Z,73.07
2024-01-26T08:39:06.066Z,75.93
2024-01-26T08:41:33.036Z,73.25
2024-01-26T08:43:59.549Z,73.78
2024-01-26T08:46:26.032Z,75.32
2024-01-26T08:48:52.822Z,73.78
2024-01-26T08:51:19.485Z,79.88
2024-01-26T08:53:46.053Z,80.85
2024-01-26T08:56:13.607Z,75.82
2024-01-26T08:58:40.077Z,77.97
2024-01-26T09:01:06.585Z,76.25
2024-01-26T09:03:33.778Z,80.05
2024-01-26T09:06:00.638Z,77.82
2024-01-26T09:08:27.469Z,77.15
2024-01-26T09:10:54.011Z,79.78
2024-01-26T09:13:22.081Z,83.40
2024-01-26T09:15:48.880Z,86.32
2024-01-26T09:18:15.571Z,91.40
2024-01-26T09:20:42.945Z,90.32
2024-01-26T09:23:09.481Z,92.30
2024-01-26T09:25:35.960Z,101.20
2024-01-26T09:28:02.419Z,102.80
2024-01-26T09:30:29.036Z,99.70
2024-01-26T09:32:55.791Z,112.78
2024-01-26T09:35:22.769Z,110.93
2024-01-26T09:37:49.345Z,103.13
2024-01-26T09:40:16.322Z,99.68
2024-01-26T09:42:43.027Z,109.47
2024-01-26T09:45:10.391Z,113.28
2024-01-26T09:47:37.316Z,113.90
2024-01-26T09:50:05.833Z,116.45
2024-01-26T09:52:35.608Z,120.93
2024-01-26T09:55:02.624Z,117.05
2024-01-26T09:57:31.388Z,119.28
2024-01-26T09:59:58.216Z,128.63
2024-01-26T10:02:26.684Z,119.25
2024-01-26T10:04:54.115Z,126.80
2024-01-26T10:07:21.829Z,123.55
2024-01-26T10:09:48.289Z,132.45
2024-01-26T10:12:14.934Z,126.70
2024-01-26T10:14:41.634Z,133.82
2024-01-26T10:17:08.122Z,132.30
2024-01-26T10:19:35.946Z,130.80
2024-01-26T10:22:03.008Z,132.45
2024-01-26T10:24:30.045Z,128.98
2024-01-26T10:26:57.137Z,135.23
2024-01-26T10:29:24.293Z,138.15
2024-01-26T10:31:51.464Z,138.20
2024-01-26T10:34:19.557Z,139.50
2024-01-26T10:36:49.915Z,141.10
2024-01-26T10:39:25.623Z,133.88
2024-01-26T10:41:54.232Z,135.60
2024-01-26T10:44:22.016Z,137.52
2024-01-26T10:46:49.704Z,147.27
2024-01-26T10:49:17.269Z,138.10
2024-01-26T10:51:44.547Z,135.02
2024-01-26T10:54:12.805Z,122.93
2024-01-26T10:56:40.225Z,134.00
2024-01-26T10:59:11.569Z,128.82
2024-01-26T11:01:39.496Z,133.98
2024-01-26T11:04:09.002Z,122.38
2024-01-26T11:06:36.075Z,129.80
2024-01-26T11:09:08.489Z,126.15
2024-01-26T11:11:39.867Z,127.43
2024-01-26T11:14:07.118Z,125.68
2024-01-26T11:16:35.292Z,135.00
2024-01-26T11:19:03.581Z,120.07
2024-01-26T11:21:45.921Z,116.40
2024-01-26T11:24:16.683Z,118.35
2024-01-26T11:26:44.064Z,128.32
2024-01-26T11:29:15.121Z,117.93
2024-01-26T11:31:43.314Z,132.18
2024-01-26T11:34:23.218Z,132.48
2024-01-26T11:36:49.995Z,124.18
2024-01-26T11:39:17.891Z,118.85
2024-01-26T11:41:46.302Z,124.55
2024-01-26T11:44:21.024Z,124.78
2024-01-26T11:46:48.780Z,124.70
2024-01-26T11:49:15.575Z,121.28
2024-01-26T11:51:42.347Z,124.15
2024-01-26T11:54:09.372Z,122.38
2024-01-26T11:56:35.951Z,121.07
2024-01-26T11:59:02.955Z,120.32
2024-01-26T12:01:29.462Z,117.60
2024-01-26T12:03:56.078Z,116.88
2024-01-26T12:06:23.168Z,120.90
2024-01-26T12:08:49.919Z,122.53
2024-01-26T12:11:18.464Z,117.63
2024-01-26T12:13:45.398Z,118.45
2024-01-26T12:16:12.017Z,117.80
2024-01-26T12:18:39.703Z,115.63
2024-01-26T12:21:06.311Z,117.22
2024-01-26T12:23:35.081Z,116.85
2024-01-26T12:26:01.539Z,106.75
2024-01-26T12:28:28.585Z,118.43
2024-01-26T12:30:55.376Z,117.53
2024-01-26T12:33:24.127Z,117.28
2024-01-26T12:35:53.306Z,114.82
2024-01-26T12:38:20.041Z,117.53
2024-01-26T12:40:48.168Z,112.38
2024-01-26T12:43:14.777Z,114.78
2024-01-26T12:45:41.725Z,120.78
2024-01-26T12:48:09.457Z,114.57
2024-01-26T12:50:36.462Z,120.30
2024-01-26T12:53:03.374Z,121.78
2024-01-26T12:55:29.950Z,114.32
2024-01-26T12:57:56.673Z,121.22
2024-01-26T13:00:23.498Z,118.05
2024-01-26T13:02:50.105Z,122.82
2024-01-26T13:05:17.562Z,120.18
2024-01-26T13:07:44.197Z,118.18
2024-01-26T13:10:10.684Z,119.40
2024-01-26T13:12:37.425Z,122.82
2024-01-26T13:15:05.232Z,114.97
2024-01-26T13:17:31.774Z,123.38
2024-01-26T13:20:05.086Z,115.18
2024-01-26T13:22:38.680Z,118.50
2024-01-26T13:25:05.595Z,121.60
2024-01-26T13:27:32.102Z,119.03
2024-01-26T13:29:58.706Z,122.97
2024-01-26T13:32:25.235Z,118.82
2024-01-26T13:34:51.894Z,114.72
2024-01-26T13:37:18.506Z,117.10
2024-01-26T13:39:45.000Z,119.88
2024-01-26T13:42:11.631Z,113.95
2024-01-26T13:44:38.158Z,116.18
2024-01-26T13:47:05.042Z,123.78
2024-01-26T13:49:31.683Z,116.50
2024-01-26T13:51:58.280Z,112.13
2024-01-26T13:54:25.083Z,116.63
2024-01-26T13:56:55.847Z,112.97
2024-01-26T13:59:22.370Z,115.00
2024-01-26T14:01:49.235Z,116.70
2024-01-26T14:04:15.906Z,112.95
2024-01-26T14:06:42.641Z,116.68
2024-01-26T14:09:09.340Z,119.75
2024-01-26T14:11:37.292Z,117.57
2024-01-26T14:14:06.014Z,115.97
2024-01-26T14:16:32.715Z,110.78
2024-01-26T14:18:59.320Z,122.43
2024-01-26T14:21:25.972Z,117.35
2024-01-26T14:23:52.532Z,109.22
2024-01-26T14:26:19.072Z,119.70
2024-01-26T14:28:47.820Z,115.47
2024-01-26T14:31:14.283Z,108.57
2024-01-26T14:33:41.231Z,114.95
2024-01-26T14:36:08.841Z,111.30
2024-01-26T14:38:35.405Z,134.13
2024-01-26T14:41:01.990Z,116.60
2024-01-26T14:43:28.469Z,124.80
2024-01-26T14:45:54.942Z,118.82
2024-01-26T14:48:21.570Z,121.25
2024-01-26T14:50:48.213Z,116.95
2024-01-26T14:53:14.686Z,114.57
2024-01-26T14:55:41.249Z,115.90
2024-01-26T14:58:07.867Z,115.47
2024-01-26T15:00:36.165Z,123.25
2024-01-26T15:03:02.896Z,120.68
2024-01-26T15:05:29.455Z,116.40
2024-01-26T15:07:56.033Z,120.13
2024-01-26T15:10:23.100Z,118.40
2024-01-26T15:12:50.071Z,137.88
2024-01-26T15:15:19.539Z,144.88
2024-01-26T15:17:49.130Z,127.60
2024-01-26T15:20:16.458Z,126.70
2024-01-26T15:22:45.558Z,120.70
2024-01-26T15:25:14.198Z,162.05
2024-01-26T15:27:41.519Z,128.40
2024-01-26T15:30:13.893Z,119.70
2024-01-26T15:32:41.572Z,113.00
2024-01-26T15:35:12.197Z,142.50
2024-01-26T15:37:39.306Z,118.27
2024-01-26T15:40:07.377Z,126.13
2024-01-26T15:42:34.031Z,126.60
2024-01-26T15:45:02.741Z,128.80
2024-01-26T15:47:29.553Z,126.43
2024-01-26T15:49:56.303Z,127.28
2024-01-26T15:52:29.542Z,118.60
2024-01-26T15:54:59.965Z,120.50
2024-01-26T15:57:26.535Z,118.38
2024-01-26T15:59:53.141Z,127.70
2024-01-26T16:02:19.651Z,123.50
2024-01-26T16:04:46.242Z,121.60
2024-01-26T16:07:12.957Z,117.22
2024-01-26T16:09:40.777Z,124.30
2024-01-26T16:12:07.391Z,138.73
2024-01-26T16:14:33.934Z,131.32
2024-01-26T16:17:00.469Z,135.27
2024-01-26T16:19:27.440Z,173.00
2024-01-26T16:21:54.734Z,144.02
2024-01-26T16:24:21.480Z,145.32
2024-01-26T16:26:48.074Z,140.63
2024-01-26T16:29:14.709Z,119.95
2024-01-26T16:31:42.036Z,127.38
2024-01-26T16:34:08.621Z,130.77
2024-01-26T16:36:35.230Z,163.70
2024-01-26T16:39:03.584Z,171.00
2024-01-26T16:41:31.189Z,171.00
2024-01-26T16:43:57.692Z,164.50
2024-01-26T16:46:25.494Z,158.23
2024-01-26T16:48:52.073Z,160.38
2024-01-26T16:51:18.911Z,138.32
2024-01-26T16:53:45.524Z,132.45
2024-01-26T16:56:13.786Z,145.60
2024-01-26T16:58:40.280Z,150.85
2024-01-26T17:01:13.734Z,144.45
2024-01-26T17:03:40.742Z,138.63
2024-01-26T17:06:07.341Z,133.35
2024-01-26T17:08:34.125Z,150.15
2024-01-26T17:11:00.771Z,149.18
2024-01-26T17:13:29.594Z,201.75
2024-01-26T17:15:57.455Z,181.23
2024-01-26T17:18:24.116Z,194.23
2024-01-26T17:20:50.705Z,165.05
2024-01-26T17:23:17.357Z,156.00
2024-01-26T17:25:43.903Z,167.52
2024-01-26T17:28:10.407Z,163.35
2024-01-26T17:30:36.984Z,168.57
2024-01-26T17:33:03.702Z,137.85
2024-01-26T17:35:32.047Z,170.20
2024-01-26T17:37:59.013Z,182.80
2024-01-26T17:40:25.664Z,162.18
2024-01-26T17:42:53.292Z,138.52
2024-01-26T17:45:21.133Z,124.97
2024-01-26T17:47:49.048Z,166.75
2024-01-26T17:50:15.636Z,212.95
2024-01-26T17:52:42.115Z,145.90
2024-01-26T17:55:08.895Z,181.63
2024-01-26T17:57:35.448Z,216.48
2024-01-26T18:00:02.463Z,184.88
2024-01-26T18:02:29.220Z,181.52
2024-01-26T18:04:55.702Z,222.43
2024-01-26T18:07:22.243Z,188.80
2024-01-26T18:09:49.000Z,176.95
2024-01-26T18:12:15.586Z,128.55
2024-01-26T18:14:42.146Z,152.88
2024-01-26T18:17:08.709Z,164.95
2024-01-26T18:19:35.590Z,143.48
2024-01-26T18:22:02.198Z,125.63
2024-01-26T18:24:28.793Z,143.10
2024-01-26T18:26:55.378Z,126.03
2024-01-26T18:29:21.887Z,108.82
2024-01-26T18:31:48.327Z,109.03
2024-01-26T18:34:15.071Z,112.32
2024-01-26T18:36:41.649Z,110.68
2024-01-26T18:39:08.158Z,117.75
2024-01-26T18:41:34.685Z,109.95
2024-01-26T18:44:01.922Z,117.35
2024-01-26T18:46:28.489Z,112.55
2024-01-26T18:48:56.176Z,115.53
2024-01-26T18:51:24.013Z,91.47
2024-01-26T18:53:50.652Z,101.88
2024-01-26T18:56:18.291Z,111.03
2024-01-26T18:58:45.935Z,95.43
2024-01-26T19:01:15.140Z,81.95
2024-01-26T19:03:43.397Z,94.03
2024-01-26T19:06:10.547Z,106.32
2024-01-26T19:08:40.342Z,104.80
2024-01-26T19:11:06.916Z,84.95
2024-01-26T19:13:33.535Z,98.05
2024-01-26T19:16:02.144Z,91.45
2024-01-26T19:18:29.297Z,85.13
2024-01-26T19:20:56.110Z,83.53
2024-01-26T19:23:22.681Z,86.90
2024-01-26T19:25:51.014Z,140.77
2024-01-26T19:28:18.057Z,129.65
2024-01-26T19:30:44.602Z,98.25
2024-01-26T19:33:11.498Z,89.65
2024-01-26T19:35:38.199Z,92.60
2024-01-26T19:38:04.827Z,125.47
2024-01-26T19:40:31.617Z,91.63
2024-01-26T19:42:58.208Z,115.47
2024-01-26T19:45:25.564Z,106.43
2024-01-26T19:47:52.408Z,141.77
2024-01-26T19:50:19.111Z,107.13
2024-01-26T19:52:45.752Z,106.35
2024-01-26T19:55:12.713Z,96.47
2024-01-26T19:57:41.969Z,78.22
2024-01-26T20:00:10.191Z,65.38
2024-01-26T20:02:37.522Z,73.85
2024-01-26T20:05:05.424Z,109.70
2024-01-26T20:07:31.989Z,98.32
2024-01-26T20:09:59.172Z,75.18
2024-01-26T20:12:25.923Z,75.45
2024-01-26T20:14:52.570Z,78.50
2024-01-26T20:17:21.661Z,70.47
2024-01-26T20:19:48.495Z,76.35
2024-01-26T20:22:15.066Z,74.97
2024-01-26T20:24:42.141Z,69.88
2024-01-26T20:27:09.344Z,67.28
2024-01-26T20:29:37.666Z,69.90
2024-01-26T20:32:04.797Z,74.15
2024-01-26T20:34:31.835Z,66.38
2024-01-26T20:37:00.744Z,72.93
2024-01-26T20:39:27.389Z,65.60
2024-01-26T20:41:54.762Z,59.72
2024-01-26T20:44:21.967Z,63.83
2024-01-26T20:46:48.538Z,58.42
2024-01-26T20:49:15.554Z,66.65
2024-01-26T20:51:42.397Z,63.38
2024-01-26T20:54:08.924Z,76.80
2024-01-26T20:56:35.691Z,73.53
2024-01-26T20:59:04.892Z,70.88
2024-01-26T21:01:34.717Z,71.57
2024-01-26T21:04:01.384Z,72.22
2024-01-26T21:06:28.191Z,74.47
2024-01-26T21:08:54.887Z,116.00
2024-01-26T21:11:22.540Z,87.75
2024-01-26T21:13:49.147Z,93.53
2024-01-26T21:16:15.665Z,83.15
2024-01-26T21:18:42.324Z,78.80
2024-01-26T21:21:09.094Z,72.38
2024-01-26T21:23:35.774Z,77.43
2024-01-26T21:26:04.758Z,68.50
2024-01-26T21:28:31.349Z,67.28
2024-01-26T21:30:57.834Z,68.57
2024-01-26T21:33:24.469Z,76.30
2024-01-26T21:35:51.199Z,75.15
2024-01-26T21:38:17.831Z,65.60
2024-01-26T21:40:44.375Z,71.47
2024-01-26T21:43:11.318Z,65.93
2024-01-26T21:45:37.954Z,75.20
2024-01-26T21:48:08.055Z,76.13
2024-01-26T21:50:35.033Z,81.13
2024-01-26T21:53:01.582Z,87.80
2024-01-26T21:55:28.149Z,70.32
2024-01-26T21:57:54.651Z,97.60
2024-01-26T22:00:21.248Z,89.35
2024-01-26T22:02:49.112Z,74.28
2024-01-26T22:05:15.761Z,92.45
2024-01-26T22:07:42.478Z,74.72
2024-01-26T22:10:09.338Z,66.18
2024-01-26T22:12:36.001Z,79.18
2024-01-26T22:15:04.450Z,65.20
2024-01-26T22:17:32.392Z,77.28
2024-01-26T22:19:59.451Z,68.55
2024-01-26T22:22:27.828Z,60.97
2024-01-26T22:24:54.455Z,65.35
2024-01-26T22:27:21.484Z,68.70
2024-01-26T22:29:48.162Z,68.30
2024-01-26T22:32:14.762Z,70.90
2024-01-26T22:34:41.356Z,66.38
2024-01-26T22:37:07.982Z,73.45
2024-01-26T22:39:34.611Z,67.95
2024-01-26T22:42:01.707Z,71.10
2024-01-26T22:44:28.515Z,65.72
2024-01-26T22:46:55.182Z,76.88
2024-01-26T22:49:22.414Z,80.50
2024-01-26T22:51:49.161Z,74.03
2024-01-26T22:54:15.726Z,85.80
2024-01-26T22:56:42.412Z,77.30
2024-01-26T22:59:08.911Z,94.60
2024-01-26T23:01:35.434Z,94.65
2024-01-26T23:04:02.341Z,80.38
2024-01-26T23:06:29.090Z,84.43
2024-01-26T23:08:55.662Z,115.93
2024-01-26T23:11:23.958Z,106.13
2024-01-26T23:13:51.087Z,92.15
2024-01-26T23:16:21.714Z,82.95
2024-01-26T23:18:48.376Z,96.77
2024-01-26T23:21:15.142Z,76.25
2024-01-26T23:23:41.690Z,92.78
2024-01-26T23:26:08.810Z,91.25
2024-01-26T23:28:36.839Z,98.47
2024-01-26T23:31:03.338Z,77.95
2024-01-26T23:33:30.091Z,87.03
2024-01-26T23:35:56.813Z,104.82
2024-01-26T23:38:23.634Z,89.88
2024-01-26T23:40:50.116Z,81.90
2024-01-26T23:43:16.743Z,76.15
2024-01-26T23:45:43.332Z,97.40
2024-01-26T23:48:11.587Z,95.25
2024-01-26T23:50:40.522Z,98.72
2024-01-26T23:53:07.336Z,80.97
2024-01-26T23:55:33.805Z,97.85
2024-01-26T23:58:00.323Z,87.10
